sensor_id;sensor_type;location;lat;lon;timestamp;temperature;humidity
5705;DHT22;2877;48.238;11.160;2022-11-02T00:01:19;10.40;99.90
5705;DHT22;2877;48.238;11.160;2022-11-02T00:03:45;10.40;99.90
5705;DHT22;2877;48.238;11.160;2022-11-02T00:06:11;10.30;99.90
5705;DHT22;2877;48.238;11.160;2022-11-02T00:08:37;10.30;99.90
5705;DHT22;2877;48.238;11.160;2022-11-02T00:11:02;10.30;99.90
5705;DHT22;2877;48.238;11.160;2022-11-02T00:13:28;10.30;99.90
5705;DHT22;2877;48.238;11.160;2022-11-02T00:15:53;10.40;99.90
5705;DHT22;2877;48.238;11.160;2022-11-02T00:18:19;10.50;99.90
5705;DHT22;2877;48.238;11.160;2022-11-02T00:20:45;10.50;99.90
5705;DHT22;2877;48.238;11.160;2022-11-02T00:23:11;10.60;99.90
5705;DHT22;2877;48.238;11.160;2022-11-02T00:25:41;10.60;99.90
5705;DHT22;2877;48.238;11.160;2022-11-02T00:28:08;10.60;99.90
5705;DHT22;2877;48.238;11.160;2022-11-02T00:30:34;10.50;99.90
5705;DHT22;2877;48.238;11.160;2022-11-02T00:33:01;10.40;99.90
5705;DHT22;2877;48.238;11.160;2022-11-02T00:35:26;10.30;99.90
5705;DHT22;2877;48.238;11.160;2022-11-02T00:37:52;10.30;99.90
5705;DHT22;2877;48.238;11.160;2022-11-02T00:40:18;10.20;99.90
5705;DHT22;2877;48.238;11.160;2022-11-02T00:42:43;10.20;99.90
5705;DHT22;2877;48.238;11.160;2022-11-02T00:45:09;10.10;99.90
5705;DHT22;2877;48.238;11.160;2022-11-02T00:47:34;10.10;99.90
5705;DHT22;2877;48.238;11.160;2022-11-02T00:50:00;10.10;99.90
5705;DHT22;2877;48.238;11.160;2022-11-02T00:52:26;10.10;99.90
5705;DHT22;2877;48.238;11.160;2022-11-02T00:54:51;10.00;99.90
5705;DHT22;2877;48.238;11.160;2022-11-02T00:57:17;10.00;99.90
5705;DHT22;2877;48.238;11.160;2022-11-02T00:59:42;9.90;99.90
5705;DHT22;2877;48.238;11.160;2022-11-02T01:02:08;9.90;99.90
5705;DHT22;2877;48.238;11.160;2022-11-02T01:04:34;10.00;99.90
5705;DHT22;2877;48.238;11.160;2022-11-02T01:07:01;10.00;99.90
5705;DHT22;2877;48.238;11.160;2022-11-02T01:09:27;10.00;99.90
5705;DHT22;2877;48.238;11.160;2022-11-02T01:11:52;9.90;99.90
5705;DHT22;2877;48.238;11.160;2022-11-02T01:14:19;9.90;99.90
5705;DHT22;2877;48.238;11.160;2022-11-02T01:16:45;9.90;99.90
5705;DHT22;2877;48.238;11.160;2022-11-02T01:19:11;9.90;99.90
5705;DHT22;2877;48.238;11.160;2022-11-02T01:21:37;9.90;99.90
5705;DHT22;2877;48.238;11.160;2022-11-02T01:24:03;9.90;99.90
5705;DHT22;2877;48.238;11.160;2022-11-02T01:26:28;9.90;99.90
5705;DHT22;2877;48.238;11.160;2022-11-02T01:28:54;9.90;99.90
5705;DHT22;2877;48.238;11.160;2022-11-02T01:31:20;9.80;99.90
5705;DHT22;2877;48.238;11.160;2022-11-02T01:33:46;9.80;99.90
5705;DHT22;2877;48.238;11.160;2022-11-02T01:36:14;9.80;99.90
5705;DHT22;2877;48.238;11.160;2022-11-02T01:38:40;9.70;99.90
5705;DHT22;2877;48.238;11.160;2022-11-02T01:41:06;9.70;99.90
5705;DHT22;2877;48.238;11.160;2022-11-02T01:43:34;9.70;99.90
5705;DHT22;2877;48.238;11.160;2022-11-02T01:46:12;9.70;99.90
5705;DHT22;2877;48.238;11.160;2022-11-02T01:51:22;9.70;99.90
5705;DHT22;2877;48.238;11.160;2022-11-02T01:53:50;9.70;99.90
5705;DHT22;2877;48.238;11.160;2022-11-02T01:56:19;9.70;99.90
5705;DHT22;2877;48.238;11.160;2022-11-02T01:58:51;9.70;99.90
5705;DHT22;2877;48.238;11.160;2022-11-02T02:01:17;9.70;99.90
5705;DHT22;2877;48.238;11.160;2022-11-02T02:03:43;9.70;99.90
5705;DHT22;2877;48.238;11.160;2022-11-02T02:06:14;9.70;99.90
5705;DHT22;2877;48.238;11.160;2022-11-02T02:08:46;9.60;99.90
5705;DHT22;2877;48.238;11.160;2022-11-02T02:11:31;9.60;99.90
5705;DHT22;2877;48.238;11.160;2022-11-02T02:14:23;9.70;99.90
5705;DHT22;2877;48.238;11.160;2022-11-02T02:22:14;9.90;99.90
5705;DHT22;2877;48.238;11.160;2022-11-02T02:25:11;10.00;99.90
5705;DHT22;2877;48.238;11.160;2022-11-02T02:30:30;10.10;99.90
5705;DHT22;2877;48.238;11.160;2022-11-02T02:33:06;10.10;99.90
5705;DHT22;2877;48.238;11.160;2022-11-02T02:35:42;10.10;99.90
5705;DHT22;2877;48.238;11.160;2022-11-02T02:38:28;10.20;99.90
5705;DHT22;2877;48.238;11.160;2022-11-02T02:43:50;10.30;99.90
5705;DHT22;2877;48.238;11.160;2022-11-02T02:46:26;10.50;99.90
5705;DHT22;2877;48.238;11.160;2022-11-02T02:48:56;10.60;99.90
5705;DHT22;2877;48.238;11.160;2022-11-02T02:51:31;10.60;99.90
5705;DHT22;2877;48.238;11.160;2022-11-02T02:54:10;10.60;99.90
5705;DHT22;2877;48.238;11.160;2022-11-02T02:56:48;10.60;99.90
5705;DHT22;2877;48.238;11.160;2022-11-02T02:59:35;10.60;99.90
5705;DHT22;2877;48.238;11.160;2022-11-02T03:02:04;10.60;99.90
5705;DHT22;2877;48.238;11.160;2022-11-02T03:04:31;10.70;99.90
5705;DHT22;2877;48.238;11.160;2022-11-02T03:06:58;10.70;99.90
5705;DHT22;2877;48.238;11.160;2022-11-02T03:09:43;10.70;99.90
5705;DHT22;2877;48.238;11.160;2022-11-02T03:12:32;10.70;99.90
5705;DHT22;2877;48.238;11.160;2022-11-02T03:15:08;10.50;99.90
5705;DHT22;2877;48.238;11.160;2022-11-02T03:20:29;10.40;99.90
5705;DHT22;2877;48.238;11.160;2022-11-02T03:34:24;10.00;99.90
5705;DHT22;2877;48.238;11.160;2022-11-02T03:37:02;10.00;99.90
5705;DHT22;2877;48.238;11.160;2022-11-02T03:39:51;10.00;99.90
5705;DHT22;2877;48.238;11.160;2022-11-02T03:42:23;10.00;99.90
5705;DHT22;2877;48.238;11.160;2022-11-02T03:44:59;9.90;99.90
5705;DHT22;2877;48.238;11.160;2022-11-02T03:47:27;9.90;99.90
5705;DHT22;2877;48.238;11.160;2022-11-02T03:49:56;9.80;99.90
5705;DHT22;2877;48.238;11.160;2022-11-02T03:52:27;9.70;99.90
5705;DHT22;2877;48.238;11.160;2022-11-02T03:55:06;9.70;99.90
5705;DHT22;2877;48.238;11.160;2022-11-02T03:57:37;9.60;99.90
5705;DHT22;2877;48.238;11.160;2022-11-02T04:00:11;9.50;99.90
5705;DHT22;2877;48.238;11.160;2022-11-02T04:02:38;9.30;99.90
5705;DHT22;2877;48.238;11.160;2022-11-02T04:05:05;9.20;99.90
5705;DHT22;2877;48.238;11.160;2022-11-02T04:07:33;9.10;99.90
5705;DHT22;2877;48.238;11.160;2022-11-02T04:10:19;9.00;99.90
5705;DHT22;2877;48.238;11.160;2022-11-02T04:12:44;8.90;99.90
5705;DHT22;2877;48.238;11.160;2022-11-02T04:15:28;8.90;99.90
5705;DHT22;2877;48.238;11.160;2022-11-02T04:17:54;8.90;99.90
5705;DHT22;2877;48.238;11.160;2022-11-02T04:20:39;8.90;99.90
5705;DHT22;2877;48.238;11.160;2022-11-02T04:23:05;9.00;99.90
5705;DHT22;2877;48.238;11.160;2022-11-02T04:25:53;8.80;99.90
5705;DHT22;2877;48.238;11.160;2022-11-02T04:28:19;8.70;99.90
5705;DHT22;2877;48.238;11.160;2022-11-02T04:30:45;8.70;99.90
5705;DHT22;2877;48.238;11.160;2022-11-02T04:33:11;8.60;99.90
5705;DHT22;2877;48.238;11.160;2022-11-02T04:35:55;8.60;99.90
5705;DHT22;2877;48.238;11.160;2022-11-02T04:38:23;8.60;99.90
5705;DHT22;2877;48.238;11.160;2022-11-02T04:43:51;8.50;99.90
5705;DHT22;2877;48.238;11.160;2022-11-02T04:46:16;8.60;99.90
5705;DHT22;2877;48.238;11.160;2022-11-02T04:48:42;8.60;99.90
5705;DHT22;2877;48.238;11.160;2022-11-02T04:51:08;8.70;99.90
5705;DHT22;2877;48.238;11.160;2022-11-02T04:53:33;8.70;99.90
5705;DHT22;2877;48.238;11.160;2022-11-02T04:55:59;8.70;99.90
5705;DHT22;2877;48.238;11.160;2022-11-02T04:58:25;8.60;99.90
5705;DHT22;2877;48.238;11.160;2022-11-02T05:00:51;8.60;99.90
5705;DHT22;2877;48.238;11.160;2022-11-02T05:03:16;8.50;99.90
5705;DHT22;2877;48.238;11.160;2022-11-02T05:05:42;8.60;99.90
5705;DHT22;2877;48.238;11.160;2022-11-02T05:08:08;8.60;99.90
5705;DHT22;2877;48.238;11.160;2022-11-02T05:10:34;8.60;99.90
5705;DHT22;2877;48.238;11.160;2022-11-02T05:13:00;8.70;99.90
5705;DHT22;2877;48.238;11.160;2022-11-02T05:15:26;8.70;99.90
5705;DHT22;2877;48.238;11.160;2022-11-02T05:17:51;8.80;99.90
5705;DHT22;2877;48.238;11.160;2022-11-02T05:20:17;8.80;99.90
5705;DHT22;2877;48.238;11.160;2022-11-02T05:22:43;8.80;99.90
5705;DHT22;2877;48.238;11.160;2022-11-02T05:25:09;8.70;99.90
5705;DHT22;2877;48.238;11.160;2022-11-02T05:27:35;8.60;99.90
5705;DHT22;2877;48.238;11.160;2022-11-02T05:30:02;8.50;99.90
5705;DHT22;2877;48.238;11.160;2022-11-02T05:32:28;8.40;99.90
5705;DHT22;2877;48.238;11.160;2022-11-02T05:34:54;8.30;99.90
5705;DHT22;2877;48.238;11.160;2022-11-02T05:37:19;8.30;99.90
5705;DHT22;2877;48.238;11.160;2022-11-02T05:39:45;8.30;99.90
5705;DHT22;2877;48.238;11.160;2022-11-02T05:42:11;8.20;99.90
5705;DHT22;2877;48.238;11.160;2022-11-02T05:44:36;8.20;99.90
5705;DHT22;2877;48.238;11.160;2022-11-02T05:47:02;8.10;99.90
5705;DHT22;2877;48.238;11.160;2022-11-02T05:49:28;8.10;99.90
5705;DHT22;2877;48.238;11.160;2022-11-02T05:51:54;8.00;99.90
5705;DHT22;2877;48.238;11.160;2022-11-02T05:54:19;8.00;99.90
5705;DHT22;2877;48.238;11.160;2022-11-02T05:56:45;8.00;99.90
5705;DHT22;2877;48.238;11.160;2022-11-02T05:59:10;8.10;99.90
5705;DHT22;2877;48.238;11.160;2022-11-02T06:01:36;8.10;99.90
5705;DHT22;2877;48.238;11.160;2022-11-02T06:04:02;8.20;99.90
5705;DHT22;2877;48.238;11.160;2022-11-02T06:06:27;8.20;99.90
5705;DHT22;2877;48.238;11.160;2022-11-02T06:08:53;8.10;99.90
5705;DHT22;2877;48.238;11.160;2022-11-02T06:11:19;8.10;99.90
5705;DHT22;2877;48.238;11.160;2022-11-02T06:13:48;8.20;99.90
5705;DHT22;2877;48.238;11.160;2022-11-02T06:16:15;8.10;99.90
5705;DHT22;2877;48.238;11.160;2022-11-02T06:18:41;8.20;99.90
5705;DHT22;2877;48.238;11.160;2022-11-02T06:21:07;8.20;99.90
5705;DHT22;2877;48.238;11.160;2022-11-02T06:23:33;8.30;99.90
5705;DHT22;2877;48.238;11.160;2022-11-02T06:25:59;8.40;99.90
5705;DHT22;2877;48.238;11.160;2022-11-02T06:28:25;8.50;99.90
5705;DHT22;2877;48.238;11.160;2022-11-02T06:30:51;8.60;99.90
5705;DHT22;2877;48.238;11.160;2022-11-02T06:33:18;8.70;99.90
5705;DHT22;2877;48.238;11.160;2022-11-02T06:35:45;8.70;99.90
5705;DHT22;2877;48.238;11.160;2022-11-02T06:38:11;8.80;99.90
5705;DHT22;2877;48.238;11.160;2022-11-02T06:40:37;8.90;99.90
5705;DHT22;2877;48.238;11.160;2022-11-02T06:43:02;9.00;99.90
5705;DHT22;2877;48.238;11.160;2022-11-02T06:45:28;9.10;99.90
5705;DHT22;2877;48.238;11.160;2022-11-02T06:47:53;9.20;99.90
5705;DHT22;2877;48.238;11.160;2022-11-02T06:50:19;9.30;99.90
5705;DHT22;2877;48.238;11.160;2022-11-02T06:52:47;9.40;99.90
5705;DHT22;2877;48.238;11.160;2022-11-02T06:55:14;9.50;99.90
5705;DHT22;2877;48.238;11.160;2022-11-02T06:57:41;9.60;99.90
5705;DHT22;2877;48.238;11.160;2022-11-02T07:00:10;9.60;99.90
5705;DHT22;2877;48.238;11.160;2022-11-02T07:02:37;9.60;99.90
5705;DHT22;2877;48.238;11.160;2022-11-02T07:05:03;9.60;99.90
5705;DHT22;2877;48.238;11.160;2022-11-02T07:07:29;9.60;99.90
5705;DHT22;2877;48.238;11.160;2022-11-02T07:09:54;9.60;99.90
5705;DHT22;2877;48.238;11.160;2022-11-02T07:12:20;9.60;99.90
5705;DHT22;2877;48.238;11.160;2022-11-02T07:14:45;9.70;99.90
5705;DHT22;2877;48.238;11.160;2022-11-02T07:17:11;9.80;99.90
5705;DHT22;2877;48.238;11.160;2022-11-02T07:19:37;10.00;99.90
5705;DHT22;2877;48.238;11.160;2022-11-02T07:22:02;10.20;99.90
5705;DHT22;2877;48.238;11.160;2022-11-02T07:24:28;10.50;99.90
5705;DHT22;2877;48.238;11.160;2022-11-02T07:26:53;10.60;99.90
5705;DHT22;2877;48.238;11.160;2022-11-02T07:29:19;10.80;99.90
5705;DHT22;2877;48.238;11.160;2022-11-02T07:31:44;10.90;99.90
5705;DHT22;2877;48.238;11.160;2022-11-02T07:34:11;10.90;99.90
5705;DHT22;2877;48.238;11.160;2022-11-02T07:36:37;10.90;99.90
5705;DHT22;2877;48.238;11.160;2022-11-02T07:39:03;10.90;99.90
5705;DHT22;2877;48.238;11.160;2022-11-02T07:41:28;11.00;99.90
5705;DHT22;2877;48.238;11.160;2022-11-02T07:43:54;11.20;99.90
5705;DHT22;2877;48.238;11.160;2022-11-02T07:46:19;11.30;99.90
5705;DHT22;2877;48.238;11.160;2022-11-02T07:48:46;11.50;99.90
5705;DHT22;2877;48.238;11.160;2022-11-02T07:51:12;11.60;99.90
5705;DHT22;2877;48.238;11.160;2022-11-02T07:53:37;11.70;99.90
5705;DHT22;2877;48.238;11.160;2022-11-02T07:56:03;11.80;99.90
5705;DHT22;2877;48.238;11.160;2022-11-02T07:58:29;11.80;99.90
5705;DHT22;2877;48.238;11.160;2022-11-02T08:00:58;11.80;99.90
5705;DHT22;2877;48.238;11.160;2022-11-02T08:03:24;11.80;99.90
5705;DHT22;2877;48.238;11.160;2022-11-02T08:05:50;11.80;99.90
5705;DHT22;2877;48.238;11.160;2022-11-02T08:08:18;11.90;99.90
5705;DHT22;2877;48.238;11.160;2022-11-02T08:10:45;11.90;99.90
5705;DHT22;2877;48.238;11.160;2022-11-02T08:13:14;11.90;99.90
5705;DHT22;2877;48.238;11.160;2022-11-02T08:15:40;12.00;99.90
5705;DHT22;2877;48.238;11.160;2022-11-02T08:18:14;12.00;99.90
5705;DHT22;2877;48.238;11.160;2022-11-02T08:20:40;12.10;99.90
5705;DHT22;2877;48.238;11.160;2022-11-02T08:23:06;12.20;99.90
5705;DHT22;2877;48.238;11.160;2022-11-02T08:25:35;12.30;99.90
5705;DHT22;2877;48.238;11.160;2022-11-02T08:28:01;12.30;99.90
5705;DHT22;2877;48.238;11.160;2022-11-02T08:30:28;12.30;99.90
5705;DHT22;2877;48.238;11.160;2022-11-02T08:32:54;12.30;99.90
5705;DHT22;2877;48.238;11.160;2022-11-02T08:35:20;12.30;99.90
5705;DHT22;2877;48.238;11.160;2022-11-02T08:37:55;12.30;99.90
5705;DHT22;2877;48.238;11.160;2022-11-02T08:40:21;12.40;99.90
5705;DHT22;2877;48.238;11.160;2022-11-02T08:42:47;12.50;99.90
5705;DHT22;2877;48.238;11.160;2022-11-02T08:45:12;12.60;99.90
5705;DHT22;2877;48.238;11.160;2022-11-02T08:47:44;12.70;99.90
5705;DHT22;2877;48.238;11.160;2022-11-02T08:50:10;12.70;99.90
5705;DHT22;2877;48.238;11.160;2022-11-02T08:52:36;12.70;99.90
5705;DHT22;2877;48.238;11.160;2022-11-02T08:55:03;12.80;99.90
5705;DHT22;2877;48.238;11.160;2022-11-02T08:57:29;12.80;99.90
5705;DHT22;2877;48.238;11.160;2022-11-02T08:59:54;12.80;99.90
5705;DHT22;2877;48.238;11.160;2022-11-02T09:02:20;12.80;99.90
5705;DHT22;2877;48.238;11.160;2022-11-02T09:04:45;12.90;99.90
5705;DHT22;2877;48.238;11.160;2022-11-02T09:07:11;12.90;99.90
5705;DHT22;2877;48.238;11.160;2022-11-02T09:09:37;13.00;99.90
5705;DHT22;2877;48.238;11.160;2022-11-02T09:12:02;13.20;99.90
5705;DHT22;2877;48.238;11.160;2022-11-02T09:14:28;13.30;99.90
5705;DHT22;2877;48.238;11.160;2022-11-02T09:16:53;13.40;99.90
5705;DHT22;2877;48.238;11.160;2022-11-02T09:19:19;13.40;99.90
5705;DHT22;2877;48.238;11.160;2022-11-02T09:21:44;13.30;99.90
5705;DHT22;2877;48.238;11.160;2022-11-02T09:24:12;13.30;99.90
5705;DHT22;2877;48.238;11.160;2022-11-02T09:26:38;13.40;99.90
5705;DHT22;2877;48.238;11.160;2022-11-02T09:29:03;13.50;99.90
5705;DHT22;2877;48.238;11.160;2022-11-02T09:31:29;13.40;99.90
5705;DHT22;2877;48.238;11.160;2022-11-02T09:33:54;13.40;99.90
5705;DHT22;2877;48.238;11.160;2022-11-02T09:36:20;13.40;99.90
5705;DHT22;2877;48.238;11.160;2022-11-02T09:38:45;13.40;99.90
5705;DHT22;2877;48.238;11.160;2022-11-02T09:44:02;13.40;99.90
5705;DHT22;2877;48.238;11.160;2022-11-02T09:46:38;13.50;99.90
5705;DHT22;2877;48.238;11.160;2022-11-02T09:49:18;13.60;99.90
5705;DHT22;2877;48.238;11.160;2022-11-02T09:51:56;13.90;99.90
5705;DHT22;2877;48.238;11.160;2022-11-02T09:54:29;13.90;99.90
5705;DHT22;2877;48.238;11.160;2022-11-02T09:57:03;13.90;99.90
5705;DHT22;2877;48.238;11.160;2022-11-02T09:59:29;13.70;99.90
5705;DHT22;2877;48.238;11.160;2022-11-02T10:10:14;14.10;99.90
5705;DHT22;2877;48.238;11.160;2022-11-02T10:15:14;13.90;99.90
5705;DHT22;2877;48.238;11.160;2022-11-02T10:17:42;13.80;99.90
5705;DHT22;2877;48.238;11.160;2022-11-02T10:20:24;13.90;99.90
5705;DHT22;2877;48.238;11.160;2022-11-02T10:22:52;14.10;99.90
5705;DHT22;2877;48.238;11.160;2022-11-02T10:25:20;14.30;99.90
5705;DHT22;2877;48.238;11.160;2022-11-02T10:27:49;14.40;99.90
5705;DHT22;2877;48.238;11.160;2022-11-02T10:30:19;14.40;99.90
5705;DHT22;2877;48.238;11.160;2022-11-02T10:32:49;14.40;99.90
5705;DHT22;2877;48.238;11.160;2022-11-02T10:38:45;14.50;99.90
5705;DHT22;2877;48.238;11.160;2022-11-02T10:44:23;14.50;99.90
5705;DHT22;2877;48.238;11.160;2022-11-02T10:52:15;14.50;99.90
5705;DHT22;2877;48.238;11.160;2022-11-02T10:54:41;14.30;99.90
5705;DHT22;2877;48.238;11.160;2022-11-02T10:57:12;14.30;99.90
5705;DHT22;2877;48.238;11.160;2022-11-02T10:59:38;14.20;99.90
5705;DHT22;2877;48.238;11.160;2022-11-02T11:02:12;14.10;99.90
5705;DHT22;2877;48.238;11.160;2022-11-02T11:04:39;14.00;99.90
5705;DHT22;2877;48.238;11.160;2022-11-02T11:07:18;14.00;99.90
5705;DHT22;2877;48.238;11.160;2022-11-02T11:09:53;13.90;99.90
5705;DHT22;2877;48.238;11.160;2022-11-02T11:12:25;13.80;99.90
5705;DHT22;2877;48.238;11.160;2022-11-02T11:14:58;13.80;99.90
5705;DHT22;2877;48.238;11.160;2022-11-02T11:17:34;13.70;99.90
5705;DHT22;2877;48.238;11.160;2022-11-02T11:20:02;13.50;99.90
5705;DHT22;2877;48.238;11.160;2022-11-02T11:22:36;13.40;99.90
5705;DHT22;2877;48.238;11.160;2022-11-02T11:28:24;13.40;99.90
5705;DHT22;2877;48.238;11.160;2022-11-02T11:31:13;13.30;99.90
5705;DHT22;2877;48.238;11.160;2022-11-02T11:33:53;13.40;99.90
5705;DHT22;2877;48.238;11.160;2022-11-02T11:36:32;13.40;99.90
5705;DHT22;2877;48.238;11.160;2022-11-02T11:39:00;13.50;99.90
5705;DHT22;2877;48.238;11.160;2022-11-02T11:41:27;13.60;99.90
5705;DHT22;2877;48.238;11.160;2022-11-02T11:43:53;13.60;99.90
5705;DHT22;2877;48.238;11.160;2022-11-02T11:46:19;13.60;99.90
5705;DHT22;2877;48.238;11.160;2022-11-02T11:48:51;13.60;99.90
5705;DHT22;2877;48.238;11.160;2022-11-02T11:56:30;13.70;99.90
5705;DHT22;2877;48.238;11.160;2022-11-02T11:58:56;13.70;99.90
5705;DHT22;2877;48.238;11.160;2022-11-02T12:01:22;13.70;99.90
5705;DHT22;2877;48.238;11.160;2022-11-02T12:03:56;13.80;99.90
5705;DHT22;2877;48.238;11.160;2022-11-02T12:06:42;13.80;99.90
5705;DHT22;2877;48.238;11.160;2022-11-02T12:09:34;13.70;99.90
5705;DHT22;2877;48.238;11.160;2022-11-02T12:12:36;13.70;99.90
5705;DHT22;2877;48.238;11.160;2022-11-02T12:18:08;13.40;99.90
5705;DHT22;2877;48.238;11.160;2022-11-02T12:32:33;13.50;99.90
5705;DHT22;2877;48.238;11.160;2022-11-02T12:40:58;13.60;99.90
5705;DHT22;2877;48.238;11.160;2022-11-02T12:43:49;13.60;99.90
5705;DHT22;2877;48.238;11.160;2022-11-02T12:46:42;13.70;99.90
5705;DHT22;2877;48.238;11.160;2022-11-02T12:49:22;13.70;99.90
5705;DHT22;2877;48.238;11.160;2022-11-02T12:57:11;13.80;99.90
5705;DHT22;2877;48.238;11.160;2022-11-02T12:59:39;13.80;99.90
5705;DHT22;2877;48.238;11.160;2022-11-02T13:05:05;13.60;99.90
5705;DHT22;2877;48.238;11.160;2022-11-02T13:07:43;13.70;99.90
5705;DHT22;2877;48.238;11.160;2022-11-02T13:10:16;13.70;99.90
5705;DHT22;2877;48.238;11.160;2022-11-02T13:12:44;13.60;99.90
5705;DHT22;2877;48.238;11.160;2022-11-02T13:15:15;13.60;99.90
5705;DHT22;2877;48.238;11.160;2022-11-02T13:17:57;13.60;99.90
5705;DHT22;2877;48.238;11.160;2022-11-02T13:20:38;13.60;99.90
5705;DHT22;2877;48.238;11.160;2022-11-02T13:28:56;13.80;99.90
5705;DHT22;2877;48.238;11.160;2022-11-02T13:31:31;13.70;99.90
5705;DHT22;2877;48.238;11.160;2022-11-02T13:34:01;13.60;99.90
5705;DHT22;2877;48.238;11.160;2022-11-02T13:36:27;13.50;99.90
5705;DHT22;2877;48.238;11.160;2022-11-02T13:39:01;13.50;99.90
5705;DHT22;2877;48.238;11.160;2022-11-02T13:44:43;13.50;99.90
5705;DHT22;2877;48.238;11.160;2022-11-02T13:50:11;13.40;99.90
5705;DHT22;2877;48.238;11.160;2022-11-02T13:55:04;13.40;99.90
5705;DHT22;2877;48.238;11.160;2022-11-02T13:57:38;13.30;99.90
5705;DHT22;2877;48.238;11.160;2022-11-02T14:00:35;13.30;99.90
5705;DHT22;2877;48.238;11.160;2022-11-02T14:05:43;13.30;99.90
5705;DHT22;2877;48.238;11.160;2022-11-02T14:08:28;13.30;99.90
5705;DHT22;2877;48.238;11.160;2022-11-02T14:11:04;13.30;99.90
5705;DHT22;2877;48.238;11.160;2022-11-02T14:26:59;13.50;99.90
5705;DHT22;2877;48.238;11.160;2022-11-02T14:29:52;13.50;99.90
5705;DHT22;2877;48.238;11.160;2022-11-02T14:48:20;13.30;99.90
5705;DHT22;2877;48.238;11.160;2022-11-02T14:51:03;13.30;99.90
5705;DHT22;2877;48.238;11.160;2022-11-02T14:53:35;13.20;99.90
5705;DHT22;2877;48.238;11.160;2022-11-02T14:56:01;13.20;99.90
5705;DHT22;2877;48.238;11.160;2022-11-02T14:58:32;13.10;99.90
5705;DHT22;2877;48.238;11.160;2022-11-02T15:01:01;13.00;99.90
5705;DHT22;2877;48.238;11.160;2022-11-02T15:03:33;12.90;99.90
5705;DHT22;2877;48.238;11.160;2022-11-02T15:06:15;12.80;99.90
5705;DHT22;2877;48.238;11.160;2022-11-02T15:11:50;12.60;99.90
5705;DHT22;2877;48.238;11.160;2022-11-02T15:14:50;12.50;99.90
5705;DHT22;2877;48.238;11.160;2022-11-02T15:19:44;12.20;99.90
5705;DHT22;2877;48.238;11.160;2022-11-02T15:22:34;12.00;99.90
5705;DHT22;2877;48.238;11.160;2022-11-02T15:25:19;11.90;99.90
5705;DHT22;2877;48.238;11.160;2022-11-02T15:27:45;11.80;99.90
5705;DHT22;2877;48.238;11.160;2022-11-02T15:30:18;11.70;99.90
5705;DHT22;2877;48.238;11.160;2022-11-02T15:32:57;11.60;99.90
5705;DHT22;2877;48.238;11.160;2022-11-02T15:35:30;11.50;99.90
5705;DHT22;2877;48.238;11.160;2022-11-02T15:37:58;11.40;99.90
5705;DHT22;2877;48.238;11.160;2022-11-02T15:40:33;11.30;99.90
5705;DHT22;2877;48.238;11.160;2022-11-02T15:46:11;11.10;99.90
5705;DHT22;2877;48.238;11.160;2022-11-02T15:51:36;10.90;99.90
5705;DHT22;2877;48.238;11.160;2022-11-02T15:54:14;10.80;99.90
5705;DHT22;2877;48.238;11.160;2022-11-02T15:56:53;10.70;99.90
5705;DHT22;2877;48.238;11.160;2022-11-02T16:02:30;10.50;99.90
5705;DHT22;2877;48.238;11.160;2022-11-02T16:04:59;10.40;99.90
5705;DHT22;2877;48.238;11.160;2022-11-02T16:07:25;10.20;99.90
5705;DHT22;2877;48.238;11.160;2022-11-02T16:09:52;10.10;99.90
5705;DHT22;2877;48.238;11.160;2022-11-02T16:12:20;10.00;99.90
5705;DHT22;2877;48.238;11.160;2022-11-02T16:14:57;9.90;99.90
5705;DHT22;2877;48.238;11.160;2022-11-02T16:17:26;9.80;99.90
5705;DHT22;2877;48.238;11.160;2022-11-02T16:20:16;9.70;99.90
5705;DHT22;2877;48.238;11.160;2022-11-02T16:22:48;9.60;99.90
5705;DHT22;2877;48.238;11.160;2022-11-02T16:25:29;9.60;99.90
5705;DHT22;2877;48.238;11.160;2022-11-02T16:27:56;9.60;99.90
5705;DHT22;2877;48.238;11.160;2022-11-02T16:30:22;9.60;99.90
5705;DHT22;2877;48.238;11.160;2022-11-02T16:32:52;9.50;99.90
5705;DHT22;2877;48.238;11.160;2022-11-02T16:35:22;9.40;99.90
5705;DHT22;2877;48.238;11.160;2022-11-02T16:37:48;9.20;99.90
5705;DHT22;2877;48.238;11.160;2022-11-02T16:40:16;9.10;99.90
5705;DHT22;2877;48.238;11.160;2022-11-02T16:42:48;9.00;99.90
5705;DHT22;2877;48.238;11.160;2022-11-02T16:45:30;8.90;99.90
5705;DHT22;2877;48.238;11.160;2022-11-02T16:47:56;8.80;99.90
5705;DHT22;2877;48.238;11.160;2022-11-02T16:50:24;8.70;99.90
5705;DHT22;2877;48.238;11.160;2022-11-02T16:53:00;8.60;99.90
5705;DHT22;2877;48.238;11.160;2022-11-02T16:55:46;8.50;99.90
5705;DHT22;2877;48.238;11.160;2022-11-02T16:58:16;8.50;99.90
5705;DHT22;2877;48.238;11.160;2022-11-02T17:01:00;8.60;99.90
5705;DHT22;2877;48.238;11.160;2022-11-02T17:03:30;8.60;99.90
5705;DHT22;2877;48.238;11.160;2022-11-02T17:05:58;8.60;99.90
5705;DHT22;2877;48.238;11.160;2022-11-02T17:08:29;8.60;99.90
5705;DHT22;2877;48.238;11.160;2022-11-02T17:10:59;8.60;99.90
5705;DHT22;2877;48.238;11.160;2022-11-02T17:13:25;8.50;99.90
5705;DHT22;2877;48.238;11.160;2022-11-02T17:15:54;8.50;99.90
5705;DHT22;2877;48.238;11.160;2022-11-02T17:20:48;8.40;99.90
5705;DHT22;2877;48.238;11.160;2022-11-02T17:23:36;8.40;99.90
5705;DHT22;2877;48.238;11.160;2022-11-02T17:26:34;8.30;99.90
5705;DHT22;2877;48.238;11.160;2022-11-02T17:31:43;8.30;99.90
5705;DHT22;2877;48.238;11.160;2022-11-02T17:34:16;8.20;99.90
5705;DHT22;2877;48.238;11.160;2022-11-02T17:36:44;8.20;99.90
5705;DHT22;2877;48.238;11.160;2022-11-02T17:39:15;8.10;99.90
5705;DHT22;2877;48.238;11.160;2022-11-02T17:41:42;8.00;99.90
5705;DHT22;2877;48.238;11.160;2022-11-02T17:44:26;7.80;99.90
5705;DHT22;2877;48.238;11.160;2022-11-02T17:46:53;7.70;99.90
5705;DHT22;2877;48.238;11.160;2022-11-02T17:49:19;7.60;99.90
5705;DHT22;2877;48.238;11.160;2022-11-02T17:51:46;7.60;99.90
5705;DHT22;2877;48.238;11.160;2022-11-02T17:54:12;7.60;99.90
5705;DHT22;2877;48.238;11.160;2022-11-02T17:56:39;7.70;99.90
5705;DHT22;2877;48.238;11.160;2022-11-02T17:59:04;7.70;99.90
5705;DHT22;2877;48.238;11.160;2022-11-02T18:01:30;7.70;99.90
5705;DHT22;2877;48.238;11.160;2022-11-02T18:03:56;7.70;99.90
5705;DHT22;2877;48.238;11.160;2022-11-02T18:06:22;7.70;99.90
5705;DHT22;2877;48.238;11.160;2022-11-02T18:08:47;7.70;99.90
5705;DHT22;2877;48.238;11.160;2022-11-02T18:11:31;7.80;99.90
5705;DHT22;2877;48.238;11.160;2022-11-02T18:13:57;7.70;99.90
5705;DHT22;2877;48.238;11.160;2022-11-02T18:16:23;7.70;99.90
5705;DHT22;2877;48.238;11.160;2022-11-02T18:18:48;7.60;99.90
5705;DHT22;2877;48.238;11.160;2022-11-02T18:21:14;7.60;99.90
5705;DHT22;2877;48.238;11.160;2022-11-02T18:23:40;7.40;99.90
5705;DHT22;2877;48.238;11.160;2022-11-02T18:26:08;7.40;99.90
5705;DHT22;2877;48.238;11.160;2022-11-02T18:28:34;7.30;99.90
5705;DHT22;2877;48.238;11.160;2022-11-02T18:31:00;7.20;99.90
5705;DHT22;2877;48.238;11.160;2022-11-02T18:33:26;7.30;99.90
5705;DHT22;2877;48.238;11.160;2022-11-02T18:35:51;7.20;99.90
5705;DHT22;2877;48.238;11.160;2022-11-02T18:38:17;7.10;99.90
5705;DHT22;2877;48.238;11.160;2022-11-02T18:40:42;7.00;99.90
5705;DHT22;2877;48.238;11.160;2022-11-02T18:43:08;7.00;99.90
5705;DHT22;2877;48.238;11.160;2022-11-02T18:45:33;6.90;99.90
5705;DHT22;2877;48.238;11.160;2022-11-02T18:47:59;6.90;99.90
5705;DHT22;2877;48.238;11.160;2022-11-02T18:50:25;6.80;99.90